Time;durP1;ratioP1;P1;durP2;ratioP2;P2;SDS_P1;SDS_P2;PMS_P1;PMS_P2;Temp;Humidity;BMP_temperature;BMP_pressure;BME280_temperature;BME280_humidity;BME280_pressure;Samples;Min_cycle;Max_cycle;Signal;HPM_P1;HPM_P2
2022/09/14 00:00:43;;;;;;;9.55;3.22;;;14.60;99.90;;;;;;5113334;28;20040;-46
2022/09/14 00:03:09;;;;;;;7.60;3.00;;;14.60;99.90;;;;;;5113227;28;20048;-46
2022/09/14 00:05:35;;;;;;;7.75;2.88;;;14.60;99.90;;;;;;5113483;28;20036;-46
2022/09/14 00:08:01;;;;;;;8.70;3.65;;;14.50;99.90;;;;;;5113216;28;20533;-48
2022/09/14 00:10:27;;;;;;;11.00;3.17;;;14.50;99.90;;;;;;5112647;28;20069;-46
2022/09/14 00:12:53;;;;;;;8.75;2.80;;;14.60;99.90;;;;;;5113005;28;20051;-47
2022/09/14 00:15:19;;;;;;;8.73;2.83;;;14.60;99.90;;;;;;5113140;28;20223;-47
2022/09/14 00:17:44;;;;;;;7.72;2.95;;;14.60;99.90;;;;;;5112884;28;20118;-47
2022/09/14 00:20:10;;;;;;;7.72;2.50;;;14.60;99.90;;;;;;5113189;28;20417;-48
2022/09/14 00:22:36;;;;;;;7.93;2.70;;;14.60;99.90;;;;;;5113132;28;20036;-47
2022/09/14 00:25:02;;;;;;;9.00;2.80;;;14.50;99.90;;;;;;5113041;28;20501;-47
2022/09/14 00:27:28;;;;;;;6.95;2.25;;;14.50;99.90;;;;;;5094657;28;20086;-46
2022/09/14 00:29:53;;;;;;;7.10;2.60;;;14.50;99.90;;;;;;5112839;28;20079;-47
2022/09/14 00:32:19;;;;;;;12.40;3.17;;;14.40;99.90;;;;;;5112658;28;20047;-46
2022/09/14 00:34:45;;;;;;;10.13;2.85;;;14.50;99.90;;;;;;5112983;28;20036;-46
2022/09/14 00:37:11;;;;;;;7.07;2.67;;;14.60;99.90;;;;;;5112802;28;20391;-47
2022/09/14 00:39:37;;;;;;;7.05;2.42;;;14.50;99.90;;;;;;5092504;28;20436;-48
2022/09/14 00:42:04;;;;;;;9.25;2.72;;;14.50;99.90;;;;;;5092276;28;20142;-48
2022/09/14 00:44:30;;;;;;;8.88;2.65;;;14.50;99.90;;;;;;5092302;28;20039;-46
2022/09/14 00:47:01;;;;;;;10.30;2.60;;;14.40;99.90;;;;;;5092169;28;20043;-46
2022/09/14 00:49:36;;;;;;;9.82;2.90;;;14.60;99.90;;;;;;5092438;28;20046;-45
2022/09/14 00:52:21;;;;;;;9.13;3.10;;;14.50;99.90;;;;;;5074059;28;20052;-46
2022/09/14 00:54:56;;;;;;;8.75;2.72;;;14.50;99.90;;;;;;5092079;28;20036;-45
2022/09/14 00:57:23;;;;;;;9.07;3.03;;;14.40;99.90;;;;;;5091998;28;20040;-46
2022/09/14 00:59:51;;;;;;;11.18;2.60;;;14.50;99.90;;;;;;5092190;28;20041;-45
2022/09/14 01:02:18;;;;;;;6.95;2.63;;;14.40;99.90;;;;;;5073901;28;20044;-46
2022/09/14 01:04:45;;;;;;;8.70;2.85;;;14.40;99.90;;;;;;5092158;28;20044;-47
2022/09/14 01:07:25;;;;;;;9.98;3.25;;;14.50;99.90;;;;;;5091966;28;20036;-46
2022/09/14 01:10:09;;;;;;;7.25;3.38;;;14.40;99.90;;;;;;5091679;28;20044;-46
2022/09/14 01:13:13;;;;;;;10.20;3.05;;;14.40;99.90;;;;;;5092056;28;20089;-46
2022/09/14 01:16:00;;;;;;;9.98;3.00;;;14.20;99.90;;;;;;5076775;28;20047;-48
2022/09/14 01:18:35;;;;;;;7.85;3.00;;;14.40;99.90;;;;;;5092127;28;20036;-47
2022/09/14 01:21:14;;;;;;;9.45;3.40;;;14.50;99.90;;;;;;5092035;28;20096;-45
2022/09/14 01:24:10;;;;;;;9.68;3.92;;;14.50;99.90;;;;;;5077411;28;20040;-45
2022/09/14 01:26:48;;;;;;;7.70;2.92;;;14.60;99.90;;;;;;5095960;28;20048;-46
2022/09/14 01:29:25;;;;;;;8.52;3.08;;;14.60;99.90;;;;;;5096130;28;20091;-46
2022/09/14 01:32:07;;;;;;;8.43;3.47;;;14.60;99.90;;;;;;5095890;28;20046;-45
2022/09/14 01:34:44;;;;;;;8.43;2.95;;;14.70;99.90;;;;;;5096315;28;20503;-47
2022/09/14 01:37:16;;;;;;;9.35;2.83;;;14.40;99.90;;;;;;5095694;28;20513;-45
2022/09/14 01:39:46;;;;;;;9.45;3.95;;;14.40;99.90;;;;;;5116284;28;20040;-47
2022/09/14 01:42:12;;;;;;;10.20;3.10;;;14.40;99.90;;;;;;5097993;28;20495;-46
2022/09/14 01:44:42;;;;;;;9.70;3.17;;;14.50;99.90;;;;;;5077552;28;20047;-47
2022/09/14 01:47:53;;;;;;;9.02;3.95;;;14.60;99.90;;;;;;5095452;28;20036;-46
2022/09/14 01:50:27;;;;;;;8.63;3.15;;;14.60;99.90;;;;;;5095403;28;20048;-49
2022/09/14 01:53:20;;;;;;;9.13;2.95;;;14.60;99.90;;;;;;5095392;28;20483;-46
2022/09/14 01:56:04;;;;;;;7.05;3.38;;;14.70;99.90;;;;;;5095288;28;20039;-46
2022/09/14 01:58:39;;;;;;;6.40;2.75;;;14.80;99.90;;;;;;5095583;28;20377;-46
2022/09/14 02:01:08;;;;;;;12.00;3.40;;;14.70;99.90;;;;;;5095397;28;20044;-46
2022/09/14 02:03:52;;;;;;;9.05;3.22;;;14.80;99.90;;;;;;5095360;28;20396;-46
2022/09/14 02:06:27;;;;;;;9.02;3.53;;;14.70;99.90;;;;;;5095461;28;20484;-51
2022/09/14 02:08:53;;;;;;;7.57;3.15;;;14.70;99.90;;;;;;5095430;28;20092;-45
2022/09/14 02:11:19;;;;;;;9.82;3.55;;;14.70;99.90;;;;;;5095041;28;20036;-45
2022/09/14 02:13:45;;;;;;;7.50;3.00;;;14.60;99.90;;;;;;5077113;28;20069;-45
2022/09/14 02:16:11;;;;;;;9.43;3.25;;;14.70;99.90;;;;;;5095100;28;20044;-46
2022/09/14 02:18:38;;;;;;;9.27;3.83;;;14.60;99.90;;;;;;5094892;28;20044;-47
2022/09/14 02:21:10;;;;;;;12.05;4.30;;;14.70;99.90;;;;;;5095154;28;20440;-46
2022/09/14 02:23:36;;;;;;;10.18;4.15;;;14.70;99.90;;;;;;5094837;28;20502;-45
2022/09/14 02:26:03;;;;;;;7.47;3.30;;;14.80;99.90;;;;;;5094788;28;20048;-46
2022/09/14 02:28:29;;;;;;;7.53;3.55;;;14.80;99.90;;;;;;5076918;28;20418;-45
2022/09/14 02:31:03;;;;;;;9.57;3.15;;;14.80;99.90;;;;;;5094547;28;20519;-47
2022/09/14 02:33:48;;;;;;;8.52;3.22;;;14.70;99.90;;;;;;5094109;28;20036;-45
2022/09/14 02:36:35;;;;;;;8.32;3.47;;;14.70;99.90;;;;;;5094633;28;20482;-45
2022/09/14 02:39:22;;;;;;;9.50;3.17;;;14.60;99.90;;;;;;5094417;28;20040;-46
2022/09/14 02:42:15;;;;;;;7.60;3.13;;;14.70;99.90;;;;;;5047267;28;20083;-47
2022/09/14 02:44:45;;;;;;;10.15;3.40;;;14.80;99.90;;;;;;5094563;28;20047;-46
2022/09/14 02:47:16;;;;;;;9.60;3.67;;;14.70;99.90;;;;;;5094403;28;20039;-46
2022/09/14 02:50:22;;;;;;;8.25;2.92;;;14.80;99.90;;;;;;5094456;28;20052;-46
2022/09/14 02:53:00;;;;;;;7.70;3.35;;;14.80;99.90;;;;;;4992403;28;20112;-50
2022/09/14 02:55:31;;;;;;;7.80;3.20;;;14.80;99.90;;;;;;5084980;28;20066;-48
2022/09/14 02:58:04;;;;;;;10.88;3.10;;;14.80;99.90;;;;;;5094189;28;20055;-47
2022/09/14 03:00:30;;;;;;;;;;;14.80;99.90;;;;;;5094627;28;20051;-45
2022/09/14 03:02:56;;;;;;;10.25;3.33;;;14.80;99.90;;;;;;5094299;28;20028;-45
2022/09/14 03:05:22;;;;;;;8.80;2.78;;;14.90;99.90;;;;;;5094268;28;20044;-46
2022/09/14 03:07:48;;;;;;;8.77;3.08;;;14.80;99.90;;;;;;5094036;28;20070;-45
2022/09/14 03:10:13;;;;;;;6.43;3.20;;;14.80;99.90;;;;;;5093990;28;20072;-46
2022/09/14 03:12:39;;;;;;;8.30;3.17;;;14.80;99.90;;;;;;5093840;28;20127;-45
2022/09/14 03:15:05;;;;;;;11.23;3.90;;;14.80;99.90;;;;;;5094081;28;20040;-45
2022/09/14 03:17:31;;;;;;;8.68;3.60;;;14.80;99.90;;;;;;5094110;28;20380;-46
2022/09/14 03:19:57;;;;;;;10.18;3.83;;;14.90;99.90;;;;;;5093733;28;20038;-49
2022/09/14 03:22:23;;;;;;;9.30;3.20;;;14.80;99.90;;;;;;5093845;28;20082;-46
2022/09/14 03:24:48;;;;;;;9.45;3.42;;;14.80;99.90;;;;;;5093820;28;20453;-50
2022/09/14 03:27:14;;;;;;;10.30;3.50;;;14.80;99.90;;;;;;5093530;28;20079;-50
2022/09/14 03:29:40;;;;;;;8.95;3.20;;;14.80;99.90;;;;;;5093835;28;20044;-46
2022/09/14 03:32:05;;;;;;;6.57;3.00;;;14.90;99.90;;;;;;5093624;28;20526;-46
2022/09/14 03:34:31;;;;;;;7.88;2.97;;;14.80;99.90;;;;;;5075630;28;20365;-46
2022/09/14 03:36:57;;;;;;;8.60;3.30;;;14.90;99.90;;;;;;5075422;28;20040;-45
2022/09/14 03:39:23;;;;;;;8.15;3.33;;;14.90;99.90;;;;;;5093397;28;20036;-46
2022/09/14 03:41:48;;;;;;;8.15;3.03;;;14.80;99.90;;;;;;5093206;28;20088;-46
2022/09/14 03:44:14;;;;;;;7.97;3.08;;;14.90;99.90;;;;;;5093543;28;20064;-46
2022/09/14 03:46:39;;;;;;;10.73;3.10;;;14.90;99.90;;;;;;5093526;28;20047;-45
2022/09/14 03:49:05;;;;;;;7.32;2.85;;;15.00;99.90;;;;;;5093081;28;20047;-46
2022/09/14 03:51:33;;;;;;;6.07;2.85;;;14.90;99.90;;;;;;5093047;28;20056;-45
2022/09/14 03:53:58;;;;;;;11.25;3.20;;;14.90;99.90;;;;;;5093164;28;20487;-47
2022/09/14 03:56:24;;;;;;;8.43;3.35;;;15.00;99.90;;;;;;5093041;28;20032;-45
2022/09/14 03:58:50;;;;;;;7.70;2.70;;;15.00;99.90;;;;;;5092996;28;20032;-45
2022/09/14 04:01:18;;;;;;;9.20;2.95;;;14.90;99.90;;;;;;5092957;28;20044;-46
2022/09/14 04:03:44;;;;;;;8.10;2.97;;;15.00;99.90;;;;;;5093095;28;20044;-46
2022/09/14 04:06:10;;;;;;;8.05;2.60;;;15.00;99.90;;;;;;5092996;28;20039;-46
2022/09/14 04:08:38;;;;;;;6.65;2.92;;;15.00;99.90;;;;;;5092844;28;20510;-45
2022/09/14 04:11:09;;;;;;;9.80;3.17;;;15.00;99.90;;;;;;5092720;28;20541;-46
2022/09/14 04:13:36;;;;;;;8.55;2.88;;;15.00;99.90;;;;;;5092990;28;20055;-47
2022/09/14 04:16:01;;;;;;;8.02;3.38;;;15.00;99.90;;;;;;5092932;28;20044;-45
2022/09/14 04:18:27;;;;;;;7.93;3.08;;;15.00;99.90;;;;;;5074741;28;20085;-46
2022/09/14 04:20:59;;;;;;;6.68;2.63;;;14.90;99.90;;;;;;5092762;28;20048;-46
2022/09/14 04:23:25;;;;;;;7.07;2.88;;;15.00;99.90;;;;;;5092647;28;20032;-48
2022/09/14 04:25:52;;;;;;;9.73;2.50;;;15.00;99.90;;;;;;5092612;28;20450;-45
2022/09/14 04:28:18;;;;;;;8.38;2.80;;;15.00;99.90;;;;;;5092382;28;20076;-47
2022/09/14 04:30:52;;;;;;;7.55;2.90;;;15.00;99.90;;;;;;5074148;28;20083;-47
2022/09/14 04:33:18;;;;;;;8.93;2.83;;;15.00;99.90;;;;;;5092484;28;20373;-45
2022/09/14 04:35:44;;;;;;;8.35;3.00;;;15.00;99.90;;;;;;5092443;28;20040;-45
2022/09/14 04:38:09;;;;;;;8.52;2.58;;;14.90;99.90;;;;;;5092057;28;20031;-46
2022/09/14 04:40:40;;;;;;;8.63;2.90;;;15.00;99.90;;;;;;5092500;28;20166;-46
2022/09/14 04:43:05;;;;;;;7.70;2.78;;;14.90;99.90;;;;;;5074405;28;20126;-45
2022/09/14 04:45:31;;;;;;;6.18;2.65;;;14.90;99.90;;;;;;5092460;28;20514;-46
2022/09/14 04:47:56;;;;;;;6.72;2.90;;;15.00;99.90;;;;;;5092312;28;20044;-45
2022/09/14 04:50:22;;;;;;;8.30;2.53;;;15.00;99.90;;;;;;5091926;28;20056;-45
2022/09/14 04:52:48;;;;;;;7.25;3.28;;;15.00;99.90;;;;;;5092098;28;20048;-45
2022/09/14 04:55:13;;;;;;;8.90;3.50;;;14.80;99.90;;;;;;5092059;28;20057;-48
2022/09/14 04:57:39;;;;;;;6.45;2.72;;;14.90;99.90;;;;;;5091904;28;20028;-47
2022/09/14 05:00:05;;;;;;;9.60;3.38;;;14.90;99.90;;;;;;5092272;28;20449;-60
2022/09/14 05:02:31;;;;;;;6.97;3.45;;;14.80;99.90;;;;;;5092146;28;20044;-47
2022/09/14 05:04:57;;;;;;;6.72;2.83;;;14.80;99.90;;;;;;5091974;28;20082;-50
2022/09/14 05:07:23;;;;;;;8.30;2.92;;;14.90;99.90;;;;;;5091890;28;20093;-50
2022/09/14 05:09:49;;;;;;;8.63;2.97;;;14.90;99.90;;;;;;5092088;28;20441;-48
2022/09/14 05:12:14;;;;;;;6.65;2.55;;;14.90;99.90;;;;;;5074181;28;20433;-46
2022/09/14 05:14:40;;;;;;;9.00;3.33;;;14.80;99.90;;;;;;5091949;28;20043;-46
2022/09/14 05:17:06;;;;;;;9.10;3.00;;;14.80;99.90;;;;;;5092027;28;20065;-46
2022/09/14 05:19:31;;;;;;;7.45;3.00;;;14.80;99.90;;;;;;5073542;28;20056;-46
2022/09/14 05:21:57;;;;;;;10.27;3.53;;;14.90;99.90;;;;;;5091913;28;20033;-46
2022/09/14 05:24:23;;;;;;;8.15;3.42;;;14.80;99.90;;;;;;5092091;28;20192;-46
2022/09/14 05:26:52;;;;;;;8.23;2.95;;;14.90;99.90;;;;;;5092033;28;20535;-46
2022/09/14 05:29:18;;;;;;;7.30;2.80;;;14.80;99.90;;;;;;5091949;28;20040;-48
2022/09/14 05:31:44;;;;;;;8.43;2.97;;;14.80;99.90;;;;;;5091809;28;20032;-47
2022/09/14 05:34:10;;;;;;;8.65;3.40;;;14.80;99.90;;;;;;5073709;28;20076;-46
2022/09/14 05:36:37;;;;;;;10.77;3.22;;;14.80;99.90;;;;;;5091780;28;20075;-46
2022/09/14 05:39:04;;;;;;;8.85;3.22;;;14.80;99.90;;;;;;5085731;28;20039;-46
2022/09/14 05:41:29;;;;;;;6.10;2.53;;;14.90;99.90;;;;;;5091876;28;20035;-46
2022/09/14 05:43:57;;;;;;;8.52;3.10;;;14.90;99.90;;;;;;5091821;28;20549;-45
2022/09/14 05:46:22;;;;;;;9.30;3.08;;;14.80;99.90;;;;;;5091762;28;20044;-45
2022/09/14 05:48:50;;;;;;;6.80;3.17;;;14.80;99.90;;;;;;5091794;28;20567;-45
2022/09/14 05:51:21;;;;;;;6.35;3.30;;;14.80;99.90;;;;;;5073527;28;20048;-46
2022/09/14 05:53:48;;;;;;;8.82;3.30;;;14.80;99.90;;;;;;5091702;28;20047;-45
2022/09/14 05:56:15;;;;;;;8.13;2.95;;;14.90;99.90;;;;;;5091717;28;20115;-46
2022/09/14 05:58:41;;;;;;;11.82;3.70;;;14.80;99.90;;;;;;5091574;28;20036;-47
2022/09/14 06:01:12;;;;;;;7.43;2.95;;;14.80;99.90;;;;;;5091576;28;20063;-46
2022/09/14 06:03:38;;;;;;;7.15;2.80;;;14.90;99.90;;;;;;5091365;28;20036;-45
2022/09/14 06:06:06;;;;;;;8.63;3.10;;;15.00;99.90;;;;;;5091398;28;20044;-46
2022/09/14 06:08:32;;;;;;;7.43;2.50;;;14.90;99.90;;;;;;5091563;28;20373;-45
2022/09/14 06:11:15;;;;;;;7.07;2.92;;;14.90;99.90;;;;;;5095011;28;20047;-46
2022/09/14 06:13:41;;;;;;;8.20;2.85;;;14.90;99.90;;;;;;5095108;28;20040;-46
2022/09/14 06:16:10;;;;;;;8.77;2.85;;;15.00;99.90;;;;;;5095045;28;20086;-46
2022/09/14 06:18:37;;;;;;;9.70;2.65;;;15.00;99.90;;;;;;5076825;28;20123;-46
2022/09/14 06:21:04;;;;;;;8.23;3.28;;;15.10;99.90;;;;;;5094869;28;20051;-47
2022/09/14 06:23:30;;;;;;;6.85;2.92;;;15.10;99.90;;;;;;5094978;28;20036;-47
2022/09/14 06:25:57;;;;;;;9.48;2.70;;;15.00;99.90;;;;;;5094882;28;20047;-46
2022/09/14 06:28:24;;;;;;;10.50;3.10;;;15.00;99.90;;;;;;5076613;28;20052;-50
2022/09/14 06:30:49;;;;;;;10.90;2.75;;;15.20;99.90;;;;;;5094692;28;20055;-47
2022/09/14 06:33:16;;;;;;;8.45;2.72;;;15.20;99.90;;;;;;5094490;28;20028;-50
2022/09/14 06:35:45;;;;;;;7.68;2.83;;;15.10;99.90;;;;;;5094838;28;20040;-46
2022/09/14 06:38:11;;;;;;;8.90;3.10;;;15.10;99.90;;;;;;5094582;28;20381;-46
2022/09/14 06:40:37;;;;;;;8.55;2.80;;;15.10;99.90;;;;;;5076672;28;20051;-47
2022/09/14 06:43:02;;;;;;;12.05;3.03;;;15.20;99.90;;;;;;5094604;28;20048;-48
2022/09/14 06:45:31;;;;;;;8.30;3.30;;;15.20;99.90;;;;;;5094480;28;20488;-47
2022/09/14 06:47:57;;;;;;;7.25;2.80;;;15.30;99.90;;;;;;5094416;28;20767;-48
2022/09/14 06:50:24;;;;;;;10.75;3.10;;;15.20;99.90;;;;;;5094188;28;20110;-46
2022/09/14 06:52:49;;;;;;;7.40;2.75;;;15.40;99.90;;;;;;5094527;28;20115;-46
2022/09/14 06:55:15;;;;;;;9.77;2.80;;;15.30;99.90;;;;;;5076339;28;20506;-47
2022/09/14 06:57:41;;;;;;;8.27;2.80;;;15.40;99.90;;;;;;5076165;28;20040;-47
2022/09/14 07:00:07;;;;;;;7.65;2.60;;;15.40;99.90;;;;;;5094459;28;20036;-46
2022/09/14 07:02:33;;;;;;;8.57;3.00;;;15.50;99.90;;;;;;5094139;28;20051;-45
2022/09/14 07:04:59;;;;;;;6.43;2.70;;;15.50;99.90;;;;;;5076084;28;20036;-46
2022/09/14 07:07:24;;;;;;;8.63;3.33;;;15.40;99.90;;;;;;5094168;28;20040;-50
2022/09/14 07:09:50;;;;;;;6.63;2.97;;;15.50;99.90;;;;;;5093866;28;20121;-49
2022/09/14 07:12:15;;;;;;;7.68;2.80;;;15.50;99.90;;;;;;5093994;28;20040;-46
2022/09/14 07:14:41;;;;;;;6.20;2.85;;;15.60;99.90;;;;;;5075875;28;20105;-45
2022/09/14 07:17:07;;;;;;;6.75;2.72;;;15.60;99.90;;;;;;5094087;28;20035;-52
2022/09/14 07:19:32;;;;;;;9.05;3.38;;;15.70;99.90;;;;;;5093588;28;20079;-50
2022/09/14 07:21:59;;;;;;;12.52;2.80;;;15.70;99.90;;;;;;5093856;28;20365;-45
2022/09/14 07:24:25;;;;;;;7.05;2.92;;;15.60;99.90;;;;;;5093798;28;20035;-45
2022/09/14 07:26:50;;;;;;;11.50;2.90;;;15.70;99.90;;;;;;5058760;28;20032;-45
2022/09/14 07:29:18;;;;;;;8.13;2.97;;;15.70;99.90;;;;;;5093871;28;20043;-45
2022/09/14 07:31:50;;;;;;;8.02;2.60;;;15.70;99.90;;;;;;5093793;28;20479;-46
2022/09/14 07:34:16;;;;;;;10.27;2.80;;;15.80;99.90;;;;;;5093580;28;20066;-46
2022/09/14 07:36:42;;;;;;;7.72;2.92;;;15.80;99.90;;;;;;5093673;28;20044;-45
2022/09/14 07:39:12;;;;;;;10.30;3.10;;;15.90;99.90;;;;;;5093339;28;20074;-46
2022/09/14 07:41:37;;;;;;;7.00;2.50;;;15.90;99.90;;;;;;5093257;28;20115;-45
2022/09/14 07:44:05;;;;;;;9.20;2.85;;;15.80;99.90;;;;;;5093541;28;20115;-46
2022/09/14 07:46:37;;;;;;;8.40;2.83;;;15.90;99.90;;;;;;5093537;28;20137;-46
2022/09/14 07:49:05;;;;;;;9.75;2.80;;;16.10;99.90;;;;;;5093481;28;20035;-52
2022/09/14 07:51:33;;;;;;;8.73;2.90;;;16.00;99.90;;;;;;5093014;28;20125;-51
2022/09/14 07:54:00;;;;;;;7.43;2.67;;;16.00;99.90;;;;;;5093160;28;20051;-49
2022/09/14 07:56:27;;;;;;;7.43;2.20;;;16.20;99.90;;;;;;5093345;28;20047;-49
2022/09/14 07:58:55;;;;;;;8.05;2.22;;;16.20;99.90;;;;;;5074884;28;20048;-46
2022/09/14 08:01:22;;;;;;;7.85;2.13;;;16.20;99.90;;;;;;5092992;28;20122;-46
2022/09/14 08:03:48;;;;;;;9.30;2.08;;;16.30;99.90;;;;;;5092919;28;20047;-48
2022/09/14 08:06:22;;;;;;;7.70;1.70;;;16.50;99.90;;;;;;5092919;28;20051;-50
2022/09/14 08:08:50;;;;;;;6.45;1.75;;;16.70;99.90;;;;;;5074949;28;20054;-48
2022/09/14 08:11:27;;;;;;;8.88;2.33;;;16.70;99.90;;;;;;5093031;28;20040;-47
2022/09/14 08:13:55;;;;;;;7.82;1.95;;;16.70;99.90;;;;;;5074648;28;20043;-47
2022/09/14 08:16:22;;;;;;;5.88;1.55;;;16.80;99.90;;;;;;5092764;28;20476;-46
2022/09/14 08:19:02;;;;;;;8.50;1.80;;;16.80;99.90;;;;;;5092939;28;20062;-47
2022/09/14 08:21:30;;;;;;;8.70;1.40;;;16.90;99.90;;;;;;5092971;28;20111;-47
2022/09/14 08:24:00;;;;;;;10.85;1.63;;;16.80;99.90;;;;;;5092565;28;20040;-46
2022/09/14 08:26:26;;;;;;;9.23;1.20;;;16.90;99.90;;;;;;5092687;28;20036;-48
2022/09/14 08:28:54;;;;;;;6.20;1.13;;;17.10;99.90;;;;;;5092661;28;20052;-46
2022/09/14 08:31:24;;;;;;;12.15;1.90;;;17.20;99.90;;;;;;5092031;28;20480;-46
2022/09/14 08:33:54;;;;;;;12.07;1.50;;;17.40;99.90;;;;;;5092429;28;20050;-46
2022/09/14 08:36:21;;;;;;;6.47;1.20;;;17.50;99.90;;;;;;5092362;28;20072;-48
2022/09/14 08:38:47;;;;;;;8.50;1.38;;;17.70;99.90;;;;;;5092456;28;20047;-47
2022/09/14 08:41:22;;;;;;;5.63;1.00;;;17.70;99.90;;;;;;5092365;28;20054;-46
2022/09/14 08:43:48;;;;;;;9.07;1.45;;;17.80;99.90;;;;;;5092314;28;20040;-47
2022/09/14 08:46:29;;;;;;;8.55;1.00;;;17.90;99.90;;;;;;5092618;28;20116;-45
2022/09/14 08:48:55;;;;;;;5.10;1.10;;;17.80;99.90;;;;;;5092372;28;20036;-46
2022/09/14 08:51:21;;;;;;;8.48;1.17;;;17.90;99.90;;;;;;5092041;28;20048;-45
2022/09/14 08:53:51;;;;;;;6.05;0.98;;;17.90;99.90;;;;;;5074274;28;20075;-46
2022/09/14 08:56:21;;;;;;;5.63;1.00;;;18.00;99.90;;;;;;5092091;28;20544;-45
2022/09/14 08:59:00;;;;;;;9.05;1.20;;;18.10;99.90;;;;;;5092107;28;20046;-46
2022/09/14 09:02:20;;;;;;;6.90;1.08;;;17.90;99.90;;;;;;5092214;28;20036;-46
2022/09/14 09:05:02;;;;;;;5.15;1.25;;;17.70;99.90;;;;;;4990240;28;20050;-46
2022/09/14 09:07:47;;;;;;;5.38;1.00;;;17.80;99.90;;;;;;5082475;28;20056;-46
2022/09/14 09:10:14;;;;;;;7.45;1.73;;;17.70;99.90;;;;;;5091983;28;20048;-46
2022/09/14 09:12:53;;;;;;;8.82;1.40;;;17.70;99.90;;;;;;5092066;28;20124;-46
2022/09/14 09:15:24;;;;;;;9.27;1.20;;;17.70;99.90;;;;;;5091892;28;20040;-47
2022/09/14 09:17:58;;;;;;;6.95;1.10;;;17.90;99.90;;;;;;5092081;28;20101;-47
2022/09/14 09:20:29;;;;;;;12.35;1.67;;;17.90;99.90;;;;;;5073985;28;20092;-51
2022/09/14 09:23:06;;;;;;;9.35;1.83;;;17.80;99.90;;;;;;5073944;28;20059;-46
2022/09/14 09:25:49;;;;;;;6.40;1.20;;;17.90;99.90;;;;;;5091911;28;20043;-46
2022/09/14 09:28:15;;;;;;;7.55;1.00;;;17.90;99.90;;;;;;5091998;28;20437;-45
2022/09/14 09:30:41;;;;;;;6.40;1.17;;;17.90;99.90;;;;;;5091893;28;20392;-49
2022/09/14 09:33:16;;;;;;;7.03;1.20;;;17.90;99.90;;;;;;5073610;28;20518;-50
2022/09/14 09:35:42;;;;;;;5.28;1.00;;;17.90;99.90;;;;;;5091904;28;20441;-46
2022/09/14 09:38:14;;;;;;;5.72;1.15;;;18.00;99.90;;;;;;5099513;28;20035;-46
2022/09/14 09:40:43;;;;;;;7.53;1.10;;;18.00;99.90;;;;;;5074141;28;20036;-48
2022/09/14 09:43:17;;;;;;;6.75;1.23;;;18.00;99.90;;;;;;5092717;28;20036;-48
2022/09/14 09:45:55;;;;;;;6.05;0.98;;;18.00;99.90;;;;;;5095602;28;20046;-49
2022/09/14 09:48:28;;;;;;;8.70;1.10;;;17.80;99.90;;;;;;5095671;28;20046;-47
2022/09/14 09:51:06;;;;;;;7.22;1.02;;;17.80;99.90;;;;;;5095406;28;20643;-47
2022/09/14 09:53:35;;;;;;;8.25;1.30;;;17.80;99.90;;;;;;5095740;28;20093;-47
2022/09/14 09:56:02;;;;;;;6.00;1.15;;;17.90;99.90;;;;;;5095644;28;20036;-47
2022/09/14 09:58:29;;;;;;;9.82;1.35;;;18.00;99.90;;;;;;5095313;28;20132;-47
2022/09/14 10:01:01;;;;;;;6.75;1.10;;;17.90;99.90;;;;;;5095362;28;20040;-47
2022/09/14 10:03:28;;;;;;;;;;;18.00;99.90;;;;;;5095910;28;20181;-46
2022/09/14 10:06:03;;;;;;;7.53;1.40;;;18.00;99.90;;;;;;5095485;28;19916;-50
2022/09/14 10:08:33;;;;;;;5.95;1.30;;;18.00;99.90;;;;;;5095230;28;20480;-47
2022/09/14 10:11:01;;;;;;;7.40;1.33;;;18.00;99.90;;;;;;5095180;28;20405;-47
2022/09/14 10:13:39;;;;;;;8.38;1.23;;;18.10;99.90;;;;;;5095053;28;20483;-46
2022/09/14 10:16:16;;;;;;;5.65;1.02;;;18.10;99.90;;;;;;5095255;28;20406;-46
2022/09/14 10:18:50;;;;;;;8.43;1.40;;;18.10;99.90;;;;;;5095277;28;20044;-46
2022/09/14 10:21:24;;;;;;;5.85;1.00;;;18.20;99.90;;;;;;5094876;28;20035;-45
2022/09/14 10:24:18;;;;;;;7.47;1.30;;;18.20;99.90;;;;;;5076907;28;20089;-47
2022/09/14 10:26:43;;;;;;;9.38;1.13;;;18.30;99.90;;;;;;5082523;28;20567;-46
2022/09/14 10:29:26;;;;;;;3.85;1.08;;;18.10;99.90;;;;;;5095180;28;20074;-47
2022/09/14 10:32:04;;;;;;;4.65;0.93;;;18.10;99.90;;;;;;5094752;28;20048;-46
2022/09/14 10:34:29;;;;;;;7.00;1.30;;;18.10;99.90;;;;;;5094717;28;20035;-45
2022/09/14 10:37:12;;;;;;;4.82;1.10;;;18.20;99.90;;;;;;5094932;28;20043;-45
2022/09/14 10:39:56;;;;;;;7.90;1.35;;;18.10;99.90;;;;;;5094782;28;20035;-54
2022/09/14 10:42:53;;;;;;;7.50;1.35;;;18.30;99.90;;;;;;5094568;28;20035;-54
2022/09/14 10:45:30;;;;;;;8.55;1.38;;;18.30;99.90;;;;;;5094655;28;20040;-51
2022/09/14 10:48:14;;;;;;;5.25;1.00;;;18.40;99.90;;;;;;5094498;28;20036;-46
2022/09/14 10:51:25;;;;;;;9.05;1.48;;;18.50;99.90;;;;;;5094278;28;20044;-46
2022/09/14 10:54:07;;;;;;;6.53;1.13;;;18.50;99.90;;;;;;5076439;28;20048;-46
2022/09/14 10:56:49;;;;;;;3.92;1.00;;;18.60;99.90;;;;;;5093719;28;20054;-46
2022/09/14 10:59:17;;;;;;;;;;;18.70;99.90;;;;;;5094699;28;20044;-46
2022/09/14 11:02:08;;;;;;;6.53;1.35;;;18.70;99.90;;;;;;5094553;28;20672;-46
2022/09/14 11:04:43;;;;;;;10.75;1.33;;;18.70;99.90;;;;;;5094174;28;20578;-48
2022/09/14 11:07:16;;;;;;;6.60;1.20;;;18.80;99.90;;;;;;5094077;28;20054;-46
2022/09/14 11:09:53;;;;;;;5.32;1.10;;;18.80;99.90;;;;;;5093915;28;20036;-46
2022/09/14 11:12:25;;;;;;;5.78;1.00;;;18.70;99.90;;;;;;5094082;28;20071;-48
2022/09/14 11:15:12;;;;;;;4.78;0.93;;;18.80;99.90;;;;;;5094140;28;20032;-46
2022/09/14 11:17:41;;;;;;;4.13;0.93;;;18.90;99.90;;;;;;5093941;28;20040;-46
2022/09/14 11:20:17;;;;;;;4.68;1.08;;;18.90;99.90;;;;;;5075757;28;20047;-47
2022/09/14 11:23:26;;;;;;;5.05;1.00;;;18.90;99.90;;;;;;5093784;28;20134;-48
2022/09/14 11:26:20;;;;;;;8.95;1.05;;;19.00;99.90;;;;;;5011537;28;20393;-48
2022/09/14 11:29:11;;;;;;;5.45;1.17;;;19.00;99.90;;;;;;5082473;28;20074;-49
2022/09/14 11:31:49;;;;;;;8.13;1.38;;;19.00;99.90;;;;;;5093706;28;20044;-47
2022/09/14 11:34:29;;;;;;;6.63;1.23;;;18.90;99.90;;;;;;5093607;28;20150;-51
2022/09/14 11:37:00;;;;;;;7.85;1.10;;;18.90;99.90;;;;;;5093491;28;20036;-46
2022/09/14 11:39:34;;;;;;;6.97;1.58;;;18.80;99.90;;;;;;5093338;28;20110;-48
2022/09/14 11:42:11;;;;;;;8.40;1.52;;;18.80;99.90;;;;;;5093336;28;20048;-51
2022/09/14 11:44:38;;;;;;;9.48;1.15;;;19.00;99.90;;;;;;5093393;28;20042;-50
2022/09/14 11:47:20;;;;;;;9.25;1.15;;;19.10;99.90;;;;;;5093375;28;20437;-46
2022/09/14 11:50:16;;;;;;;5.05;0.95;;;19.20;99.90;;;;;;5093436;28;20476;-47
2022/09/14 11:52:41;;;;;;;6.53;1.08;;;19.40;99.90;;;;;;5072392;28;20052;-46
2022/09/14 11:55:14;;;;;;;6.00;1.10;;;19.40;99.90;;;;;;5072978;28;20448;-47
2022/09/14 11:57:46;;;;;;;5.82;1.05;;;19.30;99.90;;;;;;5072822;28;20032;-46
2022/09/14 12:00:22;;;;;;;5.82;1.00;;;19.30;99.90;;;;;;5072998;28;20454;-46
2022/09/14 12:03:13;;;;;;;7.13;1.27;;;19.00;99.90;;;;;;5071373;28;20044;-47
2022/09/14 12:05:42;;;;;;;5.10;1.30;;;19.10;99.90;;;;;;5072845;28;20037;-48
2022/09/14 12:08:30;;;;;;;4.45;0.90;;;19.20;99.90;;;;;;5071719;28;20040;-46
2022/09/14 12:11:06;;;;;;;5.40;1.30;;;19.20;99.90;;;;;;5068954;28;20127;-46
2022/09/14 12:13:33;;;;;;;7.80;1.40;;;19.50;99.90;;;;;;5072725;28;20088;-46
2022/09/14 12:16:05;;;;;;;6.55;1.00;;;19.60;99.90;;;;;;5072508;28;20083;-51
2022/09/14 12:18:35;;;;;;;6.70;1.10;;;19.70;99.90;;;;;;5071304;28;20047;-47
2022/09/14 12:21:19;;;;;;;8.63;1.20;;;19.60;99.90;;;;;;5072735;28;20098;-48
2022/09/14 12:23:50;;;;;;;7.93;1.50;;;19.60;99.90;;;;;;5072569;28;20110;-46
2022/09/14 12:26:19;;;;;;;5.75;1.00;;;19.50;99.90;;;;;;5070393;28;20044;-45
2022/09/14 12:29:00;;;;;;;6.97;1.15;;;19.80;99.90;;;;;;5072434;28;20083;-46
2022/09/14 12:31:34;;;;;;;5.03;1.17;;;19.70;99.90;;;;;;5070998;28;20041;-46
2022/09/14 12:34:15;;;;;;;7.90;1.20;;;19.80;99.90;;;;;;5072341;28;20119;-46
2022/09/14 12:36:41;;;;;;;7.20;1.42;;;19.90;99.90;;;;;;5072150;28;20165;-45
2022/09/14 12:39:19;;;;;;;5.97;1.20;;;19.90;99.90;;;;;;5072036;28;20040;-46
2022/09/14 12:41:45;;;;;;;5.85;1.20;;;19.90;99.90;;;;;;5072127;28;20044;-47
2022/09/14 12:44:32;;;;;;;5.43;1.13;;;19.70;99.90;;;;;;5072267;28;20036;-48
2022/09/14 12:47:20;;;;;;;8.70;1.00;;;19.50;99.90;;;;;;5072274;28;20056;-49
2022/09/14 12:49:47;;;;;;;6.68;1.50;;;19.40;99.90;;;;;;5071896;28;20044;-46
2022/09/14 12:52:27;;;;;;;8.02;1.15;;;19.40;99.90;;;;;;5090620;28;20445;-46
2022/09/14 12:55:20;;;;;;;6.70;1.25;;;19.20;99.90;;;;;;5092457;28;20420;-51
2022/09/14 12:57:55;;;;;;;4.63;0.90;;;19.10;99.90;;;;;;5056753;28;20051;-47
2022/09/14 13:00:21;;;;;;;7.15;1.40;;;19.20;99.90;;;;;;5092055;28;20510;-50
2022/09/14 13:03:08;;;;;;;7.97;1.20;;;19.10;99.90;;;;;;5092074;28;20039;-48
2022/09/14 13:05:34;;;;;;;9.75;1.35;;;19.00;99.90;;;;;;5092212;28;20108;-47
2022/09/14 13:08:00;;;;;;;6.30;1.83;;;18.90;99.90;;;;;;5092117;28;20503;-45